createdAt,value
2023-03-06T00:05:06.772Z,1.97
2023-03-06T00:11:58.127Z,1.95
2023-03-06T00:18:55.362Z,1.95
2023-03-06T00:25:44.846Z,1.94
2023-03-06T00:32:39.626Z,1.94
2023-03-06T00:39:27.964Z,2.01
2023-03-06T00:46:23.569Z,2.09
2023-03-06T00:53:11.330Z,2.09
2023-03-06T01:00:00.982Z,2.22
2023-03-06T01:11:03.452Z,2.16
2023-03-06T01:17:59.990Z,2.21
2023-03-06T01:24:40.231Z,2.11
2023-03-06T01:31:33.617Z,2.08
2023-03-06T01:38:23.912Z,2.06
2023-03-06T01:45:54.411Z,2.09
2023-03-06T01:56:54.365Z,2.06
2023-03-06T02:03:47.834Z,2.01
2023-03-06T02:10:35.865Z,1.85
2023-03-06T02:17:31.280Z,1.82
2023-03-06T02:24:28.459Z,1.85
2023-03-06T02:31:32.857Z,1.88
2023-03-06T02:38:29.745Z,1.93
2023-03-06T02:45:13.646Z,1.87
2023-03-06T02:52:09.910Z,1.85
2023-03-06T02:59:11.412Z,1.81
2023-03-06T03:10:31.910Z,1.84
2023-03-06T03:17:20.332Z,1.91
2023-03-06T03:24:14.188Z,1.89
2023-03-06T03:31:06.624Z,1.89
2023-03-06T03:38:01.584Z,1.84
2023-03-06T03:44:42.333Z,1.94
2023-03-06T03:51:42.726Z,1.95
2023-03-06T03:58:36.408Z,1.98
2023-03-06T04:05:24.356Z,1.95
2023-03-06T04:12:18.717Z,1.95
2023-03-06T04:19:11.398Z,1.91
2023-03-06T04:26:05.640Z,1.94
2023-03-06T04:32:56.233Z,1.94
2023-03-06T04:39:50.952Z,1.87
2023-03-06T04:46:38.509Z,1.88
2023-03-06T04:53:33.038Z,1.94
2023-03-06T05:00:30.704Z,1.97
2023-03-06T05:11:52.784Z,1.99
2023-03-06T05:18:39.825Z,1.97
2023-03-06T05:25:33.237Z,1.97
2023-03-06T05:32:23.361Z,1.98
2023-03-06T05:39:17.583Z,1.98
2023-03-06T05:46:07.240Z,1.88
2023-03-06T05:53:01.876Z,2.01
2023-03-06T06:00:07.041Z,1.94
2023-03-06T06:11:20.970Z,2.02
2023-03-06T06:18:14.025Z,2.08
2023-03-06T06:25:01.072Z,2.02
2023-03-06T06:31:49.722Z,1.93
2023-03-06T06:38:36.139Z,1.87
2023-03-06T06:45:29.156Z,1.84
2023-03-06T06:52:12.290Z,2.01
2023-03-06T06:59:16.074Z,2.11
2023-03-06T07:06:16.151Z,2.23
2023-03-06T07:13:11.562Z,2.26
2023-03-06T07:19:58.257Z,2.36
2023-03-06T07:31:21.580Z,2.47
2023-03-06T07:38:07.967Z,2.63
2023-03-06T07:45:01.929Z,2.71
2023-03-06T07:51:49.567Z,2.73
2023-03-06T07:58:43.807Z,2.88
2023-03-06T08:05:24.351Z,2.87
2023-03-06T08:12:19.518Z,2.74
2023-03-06T08:19:06.042Z,2.80
2023-03-06T08:25:59.996Z,2.83
2023-03-06T08:32:48.571Z,2.98
2023-03-06T08:39:42.645Z,3.05
2023-03-06T09:39:01.226Z,3.94
2023-03-06T09:46:06.106Z,4.16
2023-03-06T09:53:07.592Z,4.50
2023-03-06T10:08:59.518Z,4.77
2023-03-06T10:15:58.820Z,4.83
2023-03-06T10:23:12.095Z,4.85
2023-03-06T10:30:28.138Z,4.80
2023-03-06T10:37:32.317Z,4.95
2023-03-06T10:44:39.093Z,5.18
2023-03-06T13:09:23.132Z,7.05
2023-03-06T13:16:30.269Z,6.83
2023-03-06T13:23:51.236Z,6.76
2023-03-06T13:30:51.420Z,6.99
2023-03-06T13:38:04.959Z,7.01
2023-03-06T13:44:46.190Z,7.10
2023-03-06T13:51:43.433Z,7.19
2023-03-06T13:58:49.218Z,7.28
2023-03-06T14:05:48.471Z,7.25
2023-03-06T14:17:24.585Z,6.96
2023-03-06T14:25:06.936Z,6.72
2023-03-06T14:32:02.773Z,6.59
2023-03-06T14:38:53.809Z,6.68
2023-03-06T14:45:57.381Z,6.68
2023-03-06T14:52:52.107Z,6.65
2023-03-06T14:59:37.406Z,6.72
2023-03-06T15:06:38.426Z,6.75
2023-03-06T15:13:31.187Z,6.81
2023-03-06T15:24:45.953Z,6.79
2023-03-06T15:31:34.203Z,6.86
2023-03-06T15:38:35.510Z,6.91
2023-03-06T15:45:26.982Z,6.79
2023-03-06T15:52:16.534Z,6.75
2023-03-06T15:59:03.925Z,6.69
2023-03-06T16:06:00.506Z,6.45
2023-03-06T16:12:51.538Z,6.21
2023-03-06T16:24:05.998Z,5.90
2023-03-06T16:30:54.274Z,5.83
2023-03-06T16:37:48.687Z,5.56
2023-03-06T16:44:39.383Z,5.52
2023-03-06T16:51:33.668Z,5.34
2023-03-06T16:58:23.323Z,5.29
2023-03-06T17:05:23.079Z,5.24
2023-03-06T17:12:11.916Z,5.14
2023-03-06T17:19:02.219Z,4.88
2023-03-06T17:26:50.985Z,5.07
2023-03-06T17:33:40.471Z,5.02
2023-03-06T17:40:36.045Z,4.77
2023-03-06T17:47:37.775Z,4.70
2023-03-06T17:54:34.828Z,4.52
2023-03-06T18:01:27.782Z,4.42
2023-03-06T18:08:21.647Z,4.53
2023-03-06T18:15:13.135Z,4.62
2023-03-06T18:26:48.495Z,4.69
2023-03-06T18:33:46.761Z,4.49
2023-03-06T18:40:44.789Z,4.31
2023-03-06T18:47:44.776Z,4.32
2023-03-06T18:54:40.684Z,3.98
2023-03-06T19:01:32.012Z,3.90
2023-03-06T19:08:26.662Z,3.90
2023-03-06T19:15:18.611Z,3.60
2023-03-06T19:26:33.979Z,3.53
2023-03-06T19:33:26.534Z,3.62
2023-03-06T19:40:23.152Z,3.56
2023-03-06T19:47:06.211Z,3.49
2023-03-06T19:50:36.963Z,3.38
2023-03-06T19:53:18.798Z,3.39
2023-03-06T19:56:04.852Z,3.40
2023-03-06T20:03:05.394Z,3.36
2023-03-06T20:06:40.288Z,3.42
2023-03-06T20:09:53.586Z,3.43
2023-03-06T20:16:44.199Z,3.44
2023-03-06T20:28:04.029Z,3.39
2023-03-06T20:35:09.896Z,3.19
2023-03-06T20:42:05.093Z,3.04
2023-03-06T20:48:56.274Z,3.07
2023-03-06T20:56:18.809Z,2.97
2023-03-06T21:03:08.842Z,3.00
2023-03-06T21:05:40.076Z,3.01
2023-03-06T21:12:22.600Z,2.98
2023-03-06T21:14:59.726Z,3.01
2023-03-06T21:21:46.935Z,2.80
2023-03-06T21:29:38.920Z,2.65
2023-03-06T21:32:10.831Z,2.63
2023-03-06T21:34:46.910Z,2.52
2023-03-06T21:37:41.433Z,2.42
2023-03-06T21:41:05.058Z,2.28
2023-03-06T21:52:26.234Z,2.33
2023-03-06T21:55:27.877Z,2.37
2023-03-06T22:02:23.674Z,2.47
2023-03-06T22:05:12.322Z,2.50
2023-03-06T22:12:06.624Z,2.52
2023-03-06T22:14:44.632Z,2.52
2023-03-06T22:21:39.869Z,2.50
2023-03-06T22:28:29.243Z,2.57
2023-03-06T22:35:22.731Z,2.53
2023-03-06T22:42:03.879Z,2.49
2023-03-06T22:48:59.689Z,2.40
2023-03-06T22:55:46.573Z,2.35
2023-03-06T23:02:35.396Z,2.35
2023-03-06T23:09:25.353Z,2.36
2023-03-06T23:16:36.811Z,2.36
2023-03-06T23:27:58.084Z,2.21
2023-03-06T23:34:50.765Z,2.09
2023-03-06T23:41:38.681Z,1.98
2023-03-06T23:48:33.210Z,1.94
2023-03-06T23:55:14.205Z,1.87
